sensor_id;sensor_type;location;lat;lon;timestamp;pressure;altitude;pressure_sealevel;temperature;humidity
20156;BME280;10238;49.556;10.956;2023-08-06T00:02:41;97627.84;;;16.24;100.00
20156;BME280;10238;49.556;10.956;2023-08-06T00:05:29;97624.94;;;16.25;100.00
20156;BME280;10238;49.556;10.956;2023-08-06T00:08:17;97619.56;;;16.25;100.00
20156;BME280;10238;49.556;10.956;2023-08-06T00:11:05;97613.00;;;16.21;100.00
20156;BME280;10238;49.556;10.956;2023-08-06T00:13:53;97613.19;;;16.20;100.00
20156;BME280;10238;49.556;10.956;2023-08-06T00:16:43;97612.56;;;16.18;100.00
20156;BME280;10238;49.556;10.956;2023-08-06T00:19:30;97606.41;;;16.11;100.00
20156;BME280;10238;49.556;10.956;2023-08-06T00:22:18;97597.94;;;16.07;100.00
20156;BME280;10238;49.556;10.956;2023-08-06T00:25:06;97589.28;;;15.99;100.00
20156;BME280;10238;49.556;10.956;2023-08-06T00:27:55;97595.69;;;15.98;100.00
20156;BME280;10238;49.556;10.956;2023-08-06T00:30:42;97583.28;;;15.97;100.00
20156;BME280;10238;49.556;10.956;2023-08-06T00:33:30;97580.00;;;15.95;100.00
20156;BME280;10238;49.556;10.956;2023-08-06T00:36:17;97574.66;;;15.95;100.00
20156;BME280;10238;49.556;10.956;2023-08-06T00:39:05;97562.50;;;15.92;100.00
20156;BME280;10238;49.556;10.956;2023-08-06T00:41:52;97558.97;;;15.92;100.00
20156;BME280;10238;49.556;10.956;2023-08-06T00:44:42;97548.47;;;15.90;100.00
20156;BME280;10238;49.556;10.956;2023-08-06T00:47:31;97554.03;;;15.89;100.00
20156;BME280;10238;49.556;10.956;2023-08-06T00:50:18;97543.72;;;15.86;100.00
20156;BME280;10238;49.556;10.956;2023-08-06T00:53:07;97537.94;;;15.82;100.00
20156;BME280;10238;49.556;10.956;2023-08-06T00:55:56;97541.88;;;15.80;100.00
20156;BME280;10238;49.556;10.956;2023-08-06T00:58:44;97540.22;;;15.79;100.00
20156;BME280;10238;49.556;10.956;2023-08-06T01:01:34;97552.41;;;15.75;100.00
20156;BME280;10238;49.556;10.956;2023-08-06T01:04:22;97560.66;;;15.73;100.00
20156;BME280;10238;49.556;10.956;2023-08-06T01:07:19;97560.22;;;15.70;100.00
20156;BME280;10238;49.556;10.956;2023-08-06T01:10:22;97560.63;;;15.67;100.00
20156;BME280;10238;49.556;10.956;2023-08-06T01:13:16;97566.38;;;15.64;100.00
20156;BME280;10238;49.556;10.956;2023-08-06T01:16:06;97552.38;;;15.62;100.00
20156;BME280;10238;49.556;10.956;2023-08-06T01:18:58;97556.28;;;15.59;100.00
20156;BME280;10238;49.556;10.956;2023-08-06T01:21:47;97565.56;;;15.57;100.00
20156;BME280;10238;49.556;10.956;2023-08-06T01:24:34;97564.94;;;15.55;100.00
20156;BME280;10238;49.556;10.956;2023-08-06T01:27:26;97558.97;;;15.53;100.00
20156;BME280;10238;49.556;10.956;2023-08-06T01:30:18;97547.00;;;15.49;100.00
20156;BME280;10238;49.556;10.956;2023-08-06T01:33:10;97550.09;;;15.46;100.00
20156;BME280;10238;49.556;10.956;2023-08-06T01:36:02;97553.59;;;15.46;100.00
20156;BME280;10238;49.556;10.956;2023-08-06T01:38:52;97544.53;;;15.47;100.00
20156;BME280;10238;49.556;10.956;2023-08-06T01:41:40;97541.06;;;15.47;100.00
20156;BME280;10238;49.556;10.956;2023-08-06T01:44:28;97535.25;;;15.43;100.00
20156;BME280;10238;49.556;10.956;2023-08-06T01:47:15;97523.13;;;15.41;100.00
20156;BME280;10238;49.556;10.956;2023-08-06T01:50:03;97520.19;;;15.36;100.00
20156;BME280;10238;49.556;10.956;2023-08-06T01:52:50;97516.28;;;15.32;100.00
20156;BME280;10238;49.556;10.956;2023-08-06T01:55:39;97525.34;;;15.31;100.00
20156;BME280;10238;49.556;10.956;2023-08-06T01:58:27;97525.94;;;15.33;100.00
20156;BME280;10238;49.556;10.956;2023-08-06T02:01:15;97535.84;;;15.32;100.00
20156;BME280;10238;49.556;10.956;2023-08-06T02:04:02;97536.66;;;15.33;100.00
20156;BME280;10238;49.556;10.956;2023-08-06T02:06:50;97530.06;;;15.29;100.00
20156;BME280;10238;49.556;10.956;2023-08-06T02:09:37;97530.06;;;15.29;100.00
20156;BME280;10238;49.556;10.956;2023-08-06T02:12:27;97523.06;;;15.28;100.00
20156;BME280;10238;49.556;10.956;2023-08-06T02:15:15;97522.66;;;15.24;100.00
20156;BME280;10238;49.556;10.956;2023-08-06T02:18:02;97520.16;;;15.23;100.00
20156;BME280;10238;49.556;10.956;2023-08-06T02:20:56;97514.81;;;15.23;100.00
20156;BME280;10238;49.556;10.956;2023-08-06T02:23:44;97514.22;;;15.21;100.00
20156;BME280;10238;49.556;10.956;2023-08-06T02:26:32;97503.72;;;15.19;100.00
20156;BME280;10238;49.556;10.956;2023-08-06T02:29:20;97502.03;;;15.18;100.00
20156;BME280;10238;49.556;10.956;2023-08-06T02:32:08;97507.41;;;15.18;100.00
20156;BME280;10238;49.556;10.956;2023-08-06T02:34:55;97512.75;;;15.18;100.00
20156;BME280;10238;49.556;10.956;2023-08-06T02:37:43;97503.28;;;15.15;100.00
20156;BME280;10238;49.556;10.956;2023-08-06T02:40:30;97485.78;;;15.13;100.00
20156;BME280;10238;49.556;10.956;2023-08-06T02:43:18;97467.44;;;15.10;100.00
20156;BME280;10238;49.556;10.956;2023-08-06T02:46:07;97462.91;;;15.10;100.00
20156;BME280;10238;49.556;10.956;2023-08-06T02:48:54;97462.91;;;15.10;100.00
20156;BME280;10238;49.556;10.956;2023-08-06T02:51:44;97467.44;;;15.10;100.00
20156;BME280;10238;49.556;10.956;2023-08-06T02:54:31;97461.28;;;15.03;100.00
20156;BME280;10238;49.556;10.956;2023-08-06T02:57:19;97462.06;;;15.03;100.00
20156;BME280;10238;49.556;10.956;2023-08-06T03:00:07;97465.59;;;15.04;100.00
20156;BME280;10238;49.556;10.956;2023-08-06T03:02:58;97465.56;;;14.97;100.00
20156;BME280;10238;49.556;10.956;2023-08-06T03:05:51;97464.97;;;14.95;100.00
20156;BME280;10238;49.556;10.956;2023-08-06T03:08:40;97459.59;;;14.89;100.00
20156;BME280;10238;49.556;10.956;2023-08-06T03:11:27;97462.06;;;14.84;100.00
20156;BME280;10238;49.556;10.956;2023-08-06T03:14:16;97453.41;;;14.88;100.00
20156;BME280;10238;49.556;10.956;2023-08-06T03:17:04;97450.69;;;14.75;100.00
20156;BME280;10238;49.556;10.956;2023-08-06T03:19:53;97448.44;;;14.72;100.00
20156;BME280;10238;49.556;10.956;2023-08-06T03:22:40;97447.44;;;14.73;100.00
20156;BME280;10238;49.556;10.956;2023-08-06T03:25:27;97464.25;;;14.61;100.00
20156;BME280;10238;49.556;10.956;2023-08-06T03:28:15;97469.41;;;14.56;100.00
20156;BME280;10238;49.556;10.956;2023-08-06T03:31:03;97469.59;;;14.54;100.00
20156;BME280;10238;49.556;10.956;2023-08-06T03:33:50;97459.50;;;14.56;100.00
20156;BME280;10238;49.556;10.956;2023-08-06T03:36:39;97463.22;;;14.55;100.00
20156;BME280;10238;49.556;10.956;2023-08-06T03:39:27;97463.63;;;14.52;100.00
20156;BME280;10238;49.556;10.956;2023-08-06T03:42:14;97461.97;;;14.51;100.00
20156;BME280;10238;49.556;10.956;2023-08-06T03:45:02;97454.56;;;14.53;100.00
20156;BME280;10238;49.556;10.956;2023-08-06T03:47:50;97440.97;;;14.55;100.00
20156;BME280;10238;49.556;10.956;2023-08-06T03:50:38;97440.56;;;14.51;100.00
20156;BME280;10238;49.556;10.956;2023-08-06T03:53:27;97441.81;;;14.49;100.00
20156;BME280;10238;49.556;10.956;2023-08-06T03:56:14;97438.91;;;14.44;100.00
20156;BME280;10238;49.556;10.956;2023-08-06T03:59:02;97443.81;;;14.40;100.00
20156;BME280;10238;49.556;10.956;2023-08-06T04:01:49;97435.59;;;14.35;100.00
20156;BME280;10238;49.556;10.956;2023-08-06T04:04:37;97439.50;;;14.33;100.00
20156;BME280;10238;49.556;10.956;2023-08-06T04:07:25;97435.75;;;14.27;100.00
20156;BME280;10238;49.556;10.956;2023-08-06T04:10:16;97442.13;;;14.26;100.00
20156;BME280;10238;49.556;10.956;2023-08-06T04:13:03;97428.50;;;14.21;100.00
20156;BME280;10238;49.556;10.956;2023-08-06T04:15:51;97440.22;;;14.20;100.00
20156;BME280;10238;49.556;10.956;2023-08-06T04:18:39;97440.41;;;14.19;100.00
20156;BME280;10238;49.556;10.956;2023-08-06T04:21:27;97435.47;;;14.16;100.00
20156;BME280;10238;49.556;10.956;2023-08-06T04:24:14;97430.53;;;14.13;100.00
20156;BME280;10238;49.556;10.956;2023-08-06T04:27:04;97438.75;;;14.11;100.00
20156;BME280;10238;49.556;10.956;2023-08-06T04:29:54;97432.16;;;14.07;100.00
20156;BME280;10238;49.556;10.956;2023-08-06T04:32:41;97428.84;;;14.05;100.00
20156;BME280;10238;49.556;10.956;2023-08-06T04:35:29;97435.41;;;14.03;100.00
20156;BME280;10238;49.556;10.956;2023-08-06T04:38:16;97427.59;;;14.01;100.00
20156;BME280;10238;49.556;10.956;2023-08-06T04:41:04;97429.63;;;13.99;100.00
20156;BME280;10238;49.556;10.956;2023-08-06T04:43:53;97430.88;;;13.97;100.00
20156;BME280;10238;49.556;10.956;2023-08-06T04:46:40;97432.09;;;13.94;100.00
20156;BME280;10238;49.556;10.956;2023-08-06T04:49:28;97430.44;;;13.93;100.00
20156;BME280;10238;49.556;10.956;2023-08-06T04:52:15;97437.00;;;13.91;100.00
20156;BME280;10238;49.556;10.956;2023-08-06T04:55:03;97446.88;;;13.90;100.00
20156;BME280;10238;49.556;10.956;2023-08-06T04:57:52;97433.53;;;13.90;100.00
20156;BME280;10238;49.556;10.956;2023-08-06T05:00:41;97437.84;;;13.91;100.00
20156;BME280;10238;49.556;10.956;2023-08-06T05:03:29;97435.78;;;13.93;100.00
20156;BME280;10238;49.556;10.956;2023-08-06T05:06:16;97430.06;;;13.96;100.00
20156;BME280;10238;49.556;10.956;2023-08-06T05:09:04;97428.81;;;13.99;100.00
20156;BME280;10238;49.556;10.956;2023-08-06T05:11:53;97444.88;;;14.05;100.00
20156;BME280;10238;49.556;10.956;2023-08-06T05:14:41;97439.13;;;14.08;100.00
20156;BME280;10238;49.556;10.956;2023-08-06T05:17:30;97437.13;;;14.17;100.00
20156;BME280;10238;49.556;10.956;2023-08-06T05:20:17;97435.91;;;14.19;100.00
20156;BME280;10238;49.556;10.956;2023-08-06T05:23:05;97436.78;;;14.26;100.00
20156;BME280;10238;49.556;10.956;2023-08-06T05:25:53;97433.91;;;14.28;100.00
20156;BME280;10238;49.556;10.956;2023-08-06T05:28:40;97439.69;;;14.31;100.00
20156;BME280;10238;49.556;10.956;2023-08-06T05:31:28;97438.03;;;14.30;100.00
20156;BME280;10238;49.556;10.956;2023-08-06T05:34:17;97446.69;;;14.32;100.00
20156;BME280;10238;49.556;10.956;2023-08-06T05:37:05;97440.31;;;14.33;100.00
20156;BME280;10238;49.556;10.956;2023-08-06T05:39:52;97446.50;;;14.40;100.00
20156;BME280;10238;49.556;10.956;2023-08-06T05:42:40;97442.63;;;14.43;100.00
20156;BME280;10238;49.556;10.956;2023-08-06T05:45:28;97441.78;;;14.42;100.00
20156;BME280;10238;49.556;10.956;2023-08-06T05:48:15;97442.22;;;14.46;100.00
20156;BME280;10238;49.556;10.956;2023-08-06T05:51:04;97448.81;;;14.50;100.00
20156;BME280;10238;49.556;10.956;2023-08-06T05:53:51;97444.09;;;14.58;100.00
20156;BME280;10238;49.556;10.956;2023-08-06T05:56:39;97448.03;;;14.75;100.00
20156;BME280;10238;49.556;10.956;2023-08-06T05:59:26;97445.16;;;14.77;100.00
20156;BME280;10238;49.556;10.956;2023-08-06T06:02:14;97446.63;;;14.92;100.00
20156;BME280;10238;49.556;10.956;2023-08-06T06:05:04;97448.50;;;15.11;100.00
20156;BME280;10238;49.556;10.956;2023-08-06T06:07:52;97436.75;;;15.26;100.00
20156;BME280;10238;49.556;10.956;2023-08-06T06:10:40;97443.19;;;15.38;100.00
20156;BME280;10238;49.556;10.956;2023-08-06T06:13:28;97441.53;;;15.50;100.00
20156;BME280;10238;49.556;10.956;2023-08-06T06:16:15;97445.03;;;15.57;100.00
20156;BME280;10238;49.556;10.956;2023-08-06T06:19:03;97440.72;;;15.56;100.00
20156;BME280;10238;49.556;10.956;2023-08-06T06:21:51;97435.13;;;15.64;100.00
20156;BME280;10238;49.556;10.956;2023-08-06T06:24:41;97429.13;;;15.62;100.00
20156;BME280;10238;49.556;10.956;2023-08-06T06:27:28;97433.25;;;15.58;100.00
20156;BME280;10238;49.556;10.956;2023-08-06T06:30:16;97428.31;;;15.55;100.00
20156;BME280;10238;49.556;10.956;2023-08-06T06:33:03;97421.94;;;15.56;100.00
20156;BME280;10238;49.556;10.956;2023-08-06T06:35:51;97423.19;;;15.60;100.00
20156;BME280;10238;49.556;10.956;2023-08-06T06:38:40;97415.53;;;15.63;100.00
20156;BME280;10238;49.556;10.956;2023-08-06T06:41:29;97412.63;;;15.65;100.00
20156;BME280;10238;49.556;10.956;2023-08-06T06:44:19;97408.31;;;15.64;100.00
20156;BME280;10238;49.556;10.956;2023-08-06T06:47:07;97407.69;;;15.62;100.00
20156;BME280;10238;49.556;10.956;2023-08-06T06:49:54;97405.22;;;15.60;100.00
20156;BME280;10238;49.556;10.956;2023-08-06T06:52:42;97403.38;;;15.61;100.00
20156;BME280;10238;49.556;10.956;2023-08-06T06:55:30;97408.53;;;15.62;100.00
20156;BME280;10238;49.556;10.956;2023-08-06T06:58:18;97406.09;;;15.54;100.00
20156;BME280;10238;49.556;10.956;2023-08-06T07:01:06;97406.88;;;15.55;100.00
20156;BME280;10238;49.556;10.956;2023-08-06T07:03:54;97412.47;;;15.60;100.00
20156;BME280;10238;49.556;10.956;2023-08-06T07:06:42;97402.75;;;15.59;100.00
20156;BME280;10238;49.556;10.956;2023-08-06T07:09:29;97404.41;;;15.66;100.00
20156;BME280;10238;49.556;10.956;2023-08-06T07:12:16;97411.38;;;15.74;100.00
20156;BME280;10238;49.556;10.956;2023-08-06T07:15:06;97395.31;;;15.80;100.00
20156;BME280;10238;49.556;10.956;2023-08-06T07:17:54;97392.00;;;15.85;100.00
20156;BME280;10238;49.556;10.956;2023-08-06T07:20:41;97388.25;;;15.92;100.00
20156;BME280;10238;49.556;10.956;2023-08-06T07:23:29;97391.53;;;16.01;100.00
20156;BME280;10238;49.556;10.956;2023-08-06T07:26:17;97386.34;;;16.06;100.00
20156;BME280;10238;49.556;10.956;2023-08-06T07:29:07;97380.53;;;16.15;100.00
20156;BME280;10238;49.556;10.956;2023-08-06T07:31:55;97377.22;;;16.20;100.00
20156;BME280;10238;49.556;10.956;2023-08-06T07:34:43;97381.53;;;16.27;100.00
20156;BME280;10238;49.556;10.956;2023-08-06T07:37:30;97382.25;;;16.41;100.00
20156;BME280;10238;49.556;10.956;2023-08-06T07:40:18;97387.56;;;16.54;100.00
20156;BME280;10238;49.556;10.956;2023-08-06T07:43:06;97390.34;;;16.72;100.00
20156;BME280;10238;49.556;10.956;2023-08-06T07:45:53;97392.50;;;16.88;100.00
20156;BME280;10238;49.556;10.956;2023-08-06T07:48:42;97390.44;;;16.90;100.00
20156;BME280;10238;49.556;10.956;2023-08-06T07:51:30;97376.19;;;16.89;100.00
20156;BME280;10238;49.556;10.956;2023-08-06T07:54:17;97371.53;;;17.03;100.00
20156;BME280;10238;49.556;10.956;2023-08-06T07:57:05;97369.31;;;17.18;100.00
20156;BME280;10238;49.556;10.956;2023-08-06T07:59:52;97357.34;;;17.39;100.00
20156;BME280;10238;49.556;10.956;2023-08-06T08:02:40;97353.19;;;17.67;100.00
20156;BME280;10238;49.556;10.956;2023-08-06T08:05:29;97337.13;;;17.79;100.00
20156;BME280;10238;49.556;10.956;2023-08-06T08:08:16;97337.81;;;17.92;100.00
20156;BME280;10238;49.556;10.956;2023-08-06T08:11:05;97336.50;;;17.95;100.00
20156;BME280;10238;49.556;10.956;2023-08-06T08:13:52;97342.41;;;18.03;100.00
20156;BME280;10238;49.556;10.956;2023-08-06T08:16:40;97340.78;;;18.02;100.00
20156;BME280;10238;49.556;10.956;2023-08-06T08:19:27;97326.03;;;18.05;100.00
20156;BME280;10238;49.556;10.956;2023-08-06T08:22:16;97340.66;;;18.09;100.00
20156;BME280;10238;49.556;10.956;2023-08-06T08:25:04;97331.03;;;18.19;100.00
20156;BME280;10238;49.556;10.956;2023-08-06T08:27:52;97329.66;;;18.28;100.00
20156;BME280;10238;49.556;10.956;2023-08-06T08:30:40;97326.69;;;18.18;100.00
20156;BME280;10238;49.556;10.956;2023-08-06T08:33:28;97329.22;;;18.31;100.00
20156;BME280;10238;49.556;10.956;2023-08-06T08:36:16;97338.00;;;18.56;100.00
20156;BME280;10238;49.556;10.956;2023-08-06T08:39:05;97327.63;;;18.71;100.00
20156;BME280;10238;49.556;10.956;2023-08-06T08:41:52;97331.47;;;18.75;100.00
20156;BME280;10238;49.556;10.956;2023-08-06T08:44:42;97334.75;;;18.77;100.00
20156;BME280;10238;49.556;10.956;2023-08-06T08:47:30;97329.97;;;18.79;100.00
20156;BME280;10238;49.556;10.956;2023-08-06T08:50:19;97325.63;;;18.78;100.00
20156;BME280;10238;49.556;10.956;2023-08-06T08:53:07;97328.34;;;18.90;100.00
20156;BME280;10238;49.556;10.956;2023-08-06T08:55:57;97329.66;;;19.10;100.00
20156;BME280;10238;49.556;10.956;2023-08-06T08:58:45;97325.13;;;19.22;100.00
20156;BME280;10238;49.556;10.956;2023-08-06T09:01:34;97310.50;;;19.42;100.00
20156;BME280;10238;49.556;10.956;2023-08-06T09:04:22;97317.97;;;19.51;100.00
20156;BME280;10238;49.556;10.956;2023-08-06T09:07:13;97310.50;;;19.42;100.00
20156;BME280;10238;49.556;10.956;2023-08-06T09:10:03;97306.81;;;19.48;100.00
20156;BME280;10238;49.556;10.956;2023-08-06T09:12:53;97312.09;;;19.66;100.00
20156;BME280;10238;49.556;10.956;2023-08-06T09:15:42;97306.22;;;19.69;100.00
20156;BME280;10238;49.556;10.956;2023-08-06T09:18:30;97310.28;;;19.83;100.00
20156;BME280;10238;49.556;10.956;2023-08-06T09:21:18;97316.63;;;19.88;100.00
20156;BME280;10238;49.556;10.956;2023-08-06T09:24:09;97319.00;;;19.73;100.00
20156;BME280;10238;49.556;10.956;2023-08-06T09:26:58;97316.31;;;19.62;100.00
20156;BME280;10238;49.556;10.956;2023-08-06T09:29:51;97312.22;;;19.71;100.00
20156;BME280;10238;49.556;10.956;2023-08-06T09:32:46;97299.53;;;19.71;100.00
20156;BME280;10238;49.556;10.956;2023-08-06T09:35:34;97298.56;;;19.77;100.00
20156;BME280;10238;49.556;10.956;2023-08-06T09:38:22;97294.09;;;19.94;100.00
20156;BME280;10238;49.556;10.956;2023-08-06T09:41:10;97303.69;;;19.90;100.00
20156;BME280;10238;49.556;10.956;2023-08-06T09:43:58;97303.09;;;20.00;100.00
20156;BME280;10238;49.556;10.956;2023-08-06T09:46:51;97286.91;;;20.00;100.00
20156;BME280;10238;49.556;10.956;2023-08-06T09:49:42;97294.84;;;20.06;100.00
20156;BME280;10238;49.556;10.956;2023-08-06T09:52:31;97303.75;;;20.18;100.00
20156;BME280;10238;49.556;10.956;2023-08-06T09:55:19;97290.31;;;20.35;100.00
20156;BME280;10238;49.556;10.956;2023-08-06T09:58:08;97279.41;;;20.58;100.00
20156;BME280;10238;49.556;10.956;2023-08-06T10:00:56;97279.25;;;20.64;100.00
20156;BME280;10238;49.556;10.956;2023-08-06T10:03:46;97280.06;;;20.65;100.00
20156;BME280;10238;49.556;10.956;2023-08-06T10:06:35;97273.84;;;20.64;100.00
20156;BME280;10238;49.556;10.956;2023-08-06T10:09:24;97275.22;;;20.67;100.00
20156;BME280;10238;49.556;10.956;2023-08-06T10:12:11;97270.47;;;20.74;100.00
20156;BME280;10238;49.556;10.956;2023-08-06T10:15:00;97268.28;;;20.71;100.00
20156;BME280;10238;49.556;10.956;2023-08-06T10:17:51;97263.03;;;20.81;100.00
20156;BME280;10238;49.556;10.956;2023-08-06T10:20:41;97262.25;;;20.97;100.00
20156;BME280;10238;49.556;10.956;2023-08-06T10:23:35;97254.72;;;20.99;100.00
20156;BME280;10238;49.556;10.956;2023-08-06T10:26:28;97257.25;;;21.05;100.00
20156;BME280;10238;49.556;10.956;2023-08-06T10:29:37;97252.75;;;21.11;100.00
20156;BME280;10238;49.556;10.956;2023-08-06T10:35:48;97259.00;;;20.95;100.00
20156;BME280;10238;49.556;10.956;2023-08-06T10:38:44;97242.84;;;20.83;100.00
20156;BME280;10238;49.556;10.956;2023-08-06T10:41:32;97241.28;;;21.04;100.00
20156;BME280;10238;49.556;10.956;2023-08-06T10:44:19;97234.31;;;21.08;100.00
20156;BME280;10238;49.556;10.956;2023-08-06T10:47:26;97243.56;;;21.12;100.00
20156;BME280;10238;49.556;10.956;2023-08-06T10:50:15;97241.56;;;20.91;100.00
20156;BME280;10238;49.556;10.956;2023-08-06T10:53:05;97240.94;;;20.84;100.00
20156;BME280;10238;49.556;10.956;2023-08-06T10:55:54;97246.00;;;20.64;100.00
20156;BME280;10238;49.556;10.956;2023-08-06T10:58:41;97244.38;;;20.79;100.00
20156;BME280;10238;49.556;10.956;2023-08-06T11:01:29;97227.53;;;21.05;100.00
20156;BME280;10238;49.556;10.956;2023-08-06T11:04:17;97221.28;;;21.21;100.00
20156;BME280;10238;49.556;10.956;2023-08-06T11:07:06;97219.97;;;21.24;100.00
20156;BME280;10238;49.556;10.956;2023-08-06T11:10:01;97218.13;;;21.29;100.00
20156;BME280;10238;49.556;10.956;2023-08-06T11:12:48;97217.09;;;21.52;100.00
20156;BME280;10238;49.556;10.956;2023-08-06T11:15:36;97204.31;;;21.69;100.00
20156;BME280;10238;49.556;10.956;2023-08-06T11:18:23;97207.66;;;21.76;100.00
20156;BME280;10238;49.556;10.956;2023-08-06T11:21:11;97209.16;;;21.67;100.00
20156;BME280;10238;49.556;10.956;2023-08-06T11:23:58;97200.66;;;21.80;100.00
20156;BME280;10238;49.556;10.956;2023-08-06T11:26:48;97205.34;;;22.11;100.00
20156;BME280;10238;49.556;10.956;2023-08-06T11:29:36;97180.94;;;22.06;100.00
20156;BME280;10238;49.556;10.956;2023-08-06T11:32:24;97194.81;;;21.88;100.00
20156;BME280;10238;49.556;10.956;2023-08-06T11:35:12;97194.59;;;22.16;100.00
20156;BME280;10238;49.556;10.956;2023-08-06T11:38:00;97194.69;;;22.31;100.00
20156;BME280;10238;49.556;10.956;2023-08-06T11:40:50;97190.72;;;22.39;100.00
20156;BME280;10238;49.556;10.956;2023-08-06T11:43:39;97180.63;;;22.56;100.00
20156;BME280;10238;49.556;10.956;2023-08-06T11:46:27;97173.38;;;22.66;100.00
20156;BME280;10238;49.556;10.956;2023-08-06T11:49:15;97169.66;;;22.77;100.00
20156;BME280;10238;49.556;10.956;2023-08-06T11:52:08;97162.91;;;23.21;100.00
20156;BME280;10238;49.556;10.956;2023-08-06T11:55:03;97171.69;;;23.39;100.00
20156;BME280;10238;49.556;10.956;2023-08-06T11:57:53;97170.69;;;23.60;100.00
20156;BME280;10238;49.556;10.956;2023-08-06T12:00:42;97153.09;;;23.72;100.00
20156;BME280;10238;49.556;10.956;2023-08-06T12:03:29;97173.50;;;23.85;100.00
20156;BME280;10238;49.556;10.956;2023-08-06T12:06:17;97162.31;;;23.71;100.00
20156;BME280;10238;49.556;10.956;2023-08-06T12:09:05;97169.63;;;23.66;100.00
20156;BME280;10238;49.556;10.956;2023-08-06T12:11:52;97173.91;;;23.05;100.00
20156;BME280;10238;49.556;10.956;2023-08-06T12:14:41;97170.06;;;23.38;100.00
20156;BME280;10238;49.556;10.956;2023-08-06T12:17:29;97159.91;;;23.90;100.00
20156;BME280;10238;49.556;10.956;2023-08-06T12:20:17;97170.78;;;23.85;100.00
20156;BME280;10238;49.556;10.956;2023-08-06T12:23:05;97181.06;;;23.73;100.00
20156;BME280;10238;49.556;10.956;2023-08-06T12:25:52;97198.81;;;23.39;100.00
20156;BME280;10238;49.556;10.956;2023-08-06T12:28:40;97195.38;;;23.11;100.00
20156;BME280;10238;49.556;10.956;2023-08-06T12:31:27;97200.13;;;22.94;100.00
20156;BME280;10238;49.556;10.956;2023-08-06T12:34:16;97196.91;;;22.97;100.00
20156;BME280;10238;49.556;10.956;2023-08-06T12:37:03;97185.31;;;23.07;100.00
20156;BME280;10238;49.556;10.956;2023-08-06T12:39:51;97190.91;;;22.90;100.00
20156;BME280;10238;49.556;10.956;2023-08-06T12:42:38;97189.28;;;22.89;100.00
20156;BME280;10238;49.556;10.956;2023-08-06T12:45:26;97176.69;;;22.73;100.00
20156;BME280;10238;49.556;10.956;2023-08-06T12:48:13;97186.91;;;22.35;100.00
20156;BME280;10238;49.556;10.956;2023-08-06T12:51:02;97189.72;;;22.18;100.00
20156;BME280;10238;49.556;10.956;2023-08-06T12:53:49;97194.34;;;21.96;100.00
20156;BME280;10238;49.556;10.956;2023-08-06T12:56:37;97202.25;;;21.76;100.00
20156;BME280;10238;49.556;10.956;2023-08-06T12:59:25;97196.47;;;21.46;100.00
20156;BME280;10238;49.556;10.956;2023-08-06T13:02:12;97211.63;;;21.09;100.00
20156;BME280;10238;49.556;10.956;2023-08-06T13:05:00;97201.41;;;20.94;100.00
20156;BME280;10238;49.556;10.956;2023-08-06T13:07:52;97205.97;;;21.10;100.00
20156;BME280;10238;49.556;10.956;2023-08-06T13:10:40;97195.69;;;21.29;100.00
20156;BME280;10238;49.556;10.956;2023-08-06T13:13:28;97208.94;;;21.30;100.00
20156;BME280;10238;49.556;10.956;2023-08-06T13:16:15;97215.03;;;21.21;100.00
20156;BME280;10238;49.556;10.956;2023-08-06T13:19:03;97212.94;;;21.23;100.00
20156;BME280;10238;49.556;10.956;2023-08-06T13:22:02;97221.84;;;21.23;100.00
20156;BME280;10238;49.556;10.956;2023-08-06T13:24:52;97230.47;;;20.87;100.00
20156;BME280;10238;49.556;10.956;2023-08-06T13:27:39;97227.00;;;20.59;100.00
20156;BME280;10238;49.556;10.956;2023-08-06T13:30:27;97243.41;;;20.52;100.00
20156;BME280;10238;49.556;10.956;2023-08-06T13:33:15;97239.63;;;20.53;100.00
20156;BME280;10238;49.556;10.956;2023-08-06T13:36:05;97232.84;;;20.51;100.00
20156;BME280;10238;49.556;10.956;2023-08-06T13:38:53;97240.94;;;20.51;100.00
20156;BME280;10238;49.556;10.956;2023-08-06T13:41:42;97240.63;;;20.64;100.00
20156;BME280;10238;49.556;10.956;2023-08-06T13:44:30;97262.56;;;20.67;100.00
20156;BME280;10238;49.556;10.956;2023-08-06T13:47:21;97250.31;;;20.32;100.00
20156;BME280;10238;49.556;10.956;2023-08-06T13:50:09;97249.34;;;20.10;100.00
20156;BME280;10238;49.556;10.956;2023-08-06T13:52:57;97260.69;;;19.84;100.00
20156;BME280;10238;49.556;10.956;2023-08-06T13:55:47;97267.63;;;19.80;100.00
20156;BME280;10238;49.556;10.956;2023-08-06T13:58:36;97272.06;;;19.86;100.00
20156;BME280;10238;49.556;10.956;2023-08-06T14:01:23;97286.00;;;19.83;100.00
20156;BME280;10238;49.556;10.956;2023-08-06T14:04:30;97280.41;;;19.73;100.00
20156;BME280;10238;49.556;10.956;2023-08-06T14:07:18;97294.84;;;19.67;100.00
20156;BME280;10238;49.556;10.956;2023-08-06T14:10:06;97302.38;;;19.53;100.00
20156;BME280;10238;49.556;10.956;2023-08-06T14:12:55;97301.91;;;19.21;100.00
20156;BME280;10238;49.556;10.956;2023-08-06T14:15:57;97313.72;;;18.97;100.00
20156;BME280;10238;49.556;10.956;2023-08-06T14:18:44;97319.22;;;18.91;100.00
20156;BME280;10238;49.556;10.956;2023-08-06T14:21:32;97312.66;;;18.87;100.00
20156;BME280;10238;49.556;10.956;2023-08-06T14:24:19;97319.53;;;18.71;100.00
20156;BME280;10238;49.556;10.956;2023-08-06T14:27:07;97323.72;;;18.67;100.00
20156;BME280;10238;49.556;10.956;2023-08-06T14:29:54;97322.72;;;18.39;100.00
20156;BME280;10238;49.556;10.956;2023-08-06T14:32:43;97332.50;;;18.33;100.00
20156;BME280;10238;49.556;10.956;2023-08-06T14:35:31;97342.97;;;18.23;100.00